AFG67 KSLC-KSLC
Flight info
| Callsign | AFG67 |
|---|---|
| Flight time | N/A |
| Altitude | 37000 |
| Route | ZIONZ1 KIMMR HELPR PITTT2 |
| Aircraft | F15/H-SDE1FGHILORVWXY/LB1 |
Departure
| Time | 2026-05-04 17:53 |
|---|---|
| Airport | Salt Lake City International Airport (KSLC) |
Arrival
| Time | N/A |
|---|---|
| Airport | Salt Lake City International Airport (KSLC) |
| Time | Latitude | Longitude | Altitude | Speed | Heading |
|---|---|---|---|---|---|
| 2026-05-04 17:34 | 40.77419 | -111.97751 | 4246 ft | 0 kts | 125° |
| 2026-05-04 17:41 | 40.77406 | -111.97727 | 4246 ft | 4 kts | 110° |
| 2026-05-04 17:42 | 40.77425 | -111.97689 | 4248 ft | 6 kts | 22° |
| 2026-05-04 17:42 | 40.77479 | -111.97683 | 4249 ft | 8 kts | 1° |
| 2026-05-04 17:42 | 40.77543 | -111.97679 | 4248 ft | 10 kts | 4° |
| 2026-05-04 17:42 | 40.77623 | -111.97673 | 4246 ft | 13 kts | 359° |
| 2026-05-04 17:43 | 40.77721 | -111.97684 | 4243 ft | 15 kts | 354° |
| 2026-05-04 17:43 | 40.77819 | -111.97695 | 4244 ft | 12 kts | 355° |
| 2026-05-04 17:43 | 40.77867 | -111.97647 | 4242 ft | 8 kts | 83° |
| 2026-05-04 17:43 | 40.77895 | -111.97587 | 4243 ft | 8 kts | 19° |
| 2026-05-04 17:44 | 40.77942 | -111.97586 | 4241 ft | 6 kts | 355° |
| 2026-05-04 17:44 | 40.78002 | -111.97593 | 4240 ft | 11 kts | 355° |
| 2026-05-04 17:44 | 40.78087 | -111.97602 | 4239 ft | 13 kts | 355° |
| 2026-05-04 17:44 | 40.78183 | -111.97614 | 4223 ft | 14 kts | 355° |
| 2026-05-04 17:45 | 40.78281 | -111.97625 | 4224 ft | 15 kts | 355° |
| 2026-05-04 17:45 | 40.78379 | -111.97636 | 4224 ft | 12 kts | 355° |
| 2026-05-04 17:45 | 40.78465 | -111.97646 | 4224 ft | 12 kts | 355° |
| 2026-05-04 17:45 | 40.78543 | -111.97655 | 4228 ft | 10 kts | 355° |
| 2026-05-04 17:46 | 40.78606 | -111.97663 | 4230 ft | 8 kts | 355° |
| 2026-05-04 17:46 | 40.78664 | -111.97669 | 4231 ft | 9 kts | 355° |
| 2026-05-04 17:46 | 40.78728 | -111.97676 | 4230 ft | 10 kts | 355° |
| 2026-05-04 17:46 | 40.78807 | -111.97684 | 4230 ft | 12 kts | 355° |
| 2026-05-04 17:47 | 40.78891 | -111.97692 | 4232 ft | 12 kts | 356° |
| 2026-05-04 17:47 | 40.78972 | -111.97700 | 4233 ft | 12 kts | 356° |
| 2026-05-04 17:47 | 40.79061 | -111.97715 | 4231 ft | 14 kts | 352° |
| 2026-05-04 17:47 | 40.79174 | -111.97729 | 4228 ft | 18 kts | 355° |
| 2026-05-04 17:48 | 40.79305 | -111.97743 | 4227 ft | 19 kts | 355° |
| 2026-05-04 17:48 | 40.79443 | -111.97761 | 4224 ft | 20 kts | 355° |
| 2026-05-04 17:48 | 40.79573 | -111.97775 | 4223 ft | 17 kts | 355° |
| 2026-05-04 17:48 | 40.79669 | -111.97786 | 4225 ft | 11 kts | 355° |
| 2026-05-04 17:49 | 40.79731 | -111.97793 | 4226 ft | 8 kts | 354° |
| 2026-05-04 17:49 | 40.79787 | -111.97800 | 4226 ft | 9 kts | 354° |
| 2026-05-04 17:49 | 40.79852 | -111.97808 | 4228 ft | 10 kts | 355° |
| 2026-05-04 17:49 | 40.79923 | -111.97816 | 4229 ft | 10 kts | 355° |
| 2026-05-04 17:50 | 40.79994 | -111.97824 | 4231 ft | 11 kts | 355° |
| 2026-05-04 17:50 | 40.80075 | -111.97833 | 4233 ft | 15 kts | 354° |
| 2026-05-04 17:50 | 40.80213 | -111.97849 | 4234 ft | 25 kts | 354° |
| 2026-05-04 17:50 | 40.80388 | -111.97870 | 4234 ft | 26 kts | 354° |
| 2026-05-04 17:51 | 40.80564 | -111.97892 | 4230 ft | 23 kts | 354° |
| 2026-05-04 17:51 | 40.80632 | -111.97832 | 4229 ft | 7 kts | 88° |
| 2026-05-04 17:51 | 40.80635 | -111.97756 | 4228 ft | 10 kts | 87° |
| 2026-05-04 17:51 | 40.80611 | -111.97684 | 4229 ft | 8 kts | 158° |
| 2026-05-04 17:52 | 40.80570 | -111.97675 | 4231 ft | 5 kts | 175° |
| 2026-05-04 17:52 | 40.80237 | -111.97638 | 4233 ft | 106 kts | 174° |
| 2026-05-04 17:52 | 40.79121 | -111.97499 | 4240 ft | 210 kts | 175° |
| 2026-05-04 17:52 | 40.77540 | -111.97334 | 4825 ft | 231 kts | 176° |
| 2026-05-04 17:53 | 40.75850 | -111.97156 | 5456 ft | 256 kts | 175° |
| 2026-05-04 17:53 | 40.74116 | -111.96954 | 6364 ft | 252 kts | 170° |
| 2026-05-04 17:53 | 40.72542 | -111.95875 | 6886 ft | 269 kts | 128° |
| 2026-05-04 17:53 | 40.71954 | -111.93547 | 6874 ft | 282 kts | 78° |
| 2026-05-04 17:54 | 40.72991 | -111.91121 | 5359 ft | 352 kts | 51° |
| 2026-05-04 17:54 | 40.74807 | -111.88883 | 5534 ft | 373 kts | 23° |
| 2026-05-04 17:54 | 40.77216 | -111.87458 | 6025 ft | 382 kts | 21° |
| 2026-05-04 17:54 | 40.78464 | -111.85056 | 7049 ft | 329 kts | 114° |
| 2026-05-04 17:55 | 40.77217 | -111.82361 | 5972 ft | 369 kts | 140° |
| 2026-05-04 17:55 | 40.74772 | -111.81198 | 5832 ft | 400 kts | 180° |
| 2026-05-04 17:55 | 40.72263 | -111.82294 | 5747 ft | 394 kts | 245° |
| 2026-05-04 17:55 | 40.71096 | -111.85573 | 6189 ft | 405 kts | 242° |
| 2026-05-04 17:56 | 40.69761 | -111.88956 | 5980 ft | 430 kts | 246° |
| 2026-05-04 17:56 | 40.70118 | -111.92450 | 6336 ft | 413 kts | 311° |
| 2026-05-04 17:56 | 40.71875 | -111.95273 | 6599 ft | 385 kts | 299° |
| 2026-05-04 17:56 | 40.71370 | -111.97557 | 7135 ft | 269 kts | 141° |
| 2026-05-04 17:57 | 40.70071 | -111.98467 | 5767 ft | 261 kts | 252° |
| 2026-05-04 17:57 | 40.69092 | -112.00822 | 5139 ft | 353 kts | 232° |
| 2026-05-04 17:57 | 40.67096 | -112.03278 | 5724 ft | 426 kts | 172° |
| 2026-05-04 17:57 | 40.64425 | -112.03786 | 6334 ft | 422 kts | 255° |
| 2026-05-04 17:58 | 40.65203 | -112.05961 | 6574 ft | 392 kts | 22° |